sensor_id;sensor_type;location;lat;lon;timestamp;P1;durP1;ratioP1;P2;durP2;ratioP2
13805;SDS011;6974;53.606;9.872;2024-01-27T00:02:16;21.37;;;5.07;;
13805;SDS011;6974;53.606;9.872;2024-01-27T00:04:43;20.50;;;5.53;;
13805;SDS011;6974;53.606;9.872;2024-01-27T00:07:10;22.13;;;6.07;;
13805;SDS011;6974;53.606;9.872;2024-01-27T00:09:37;23.00;;;6.00;;
13805;SDS011;6974;53.606;9.872;2024-01-27T00:12:05;22.97;;;5.40;;
13805;SDS011;6974;53.606;9.872;2024-01-27T00:14:37;25.50;;;6.00;;
13805;SDS011;6974;53.606;9.872;2024-01-27T00:17:04;28.77;;;7.40;;
13805;SDS011;6974;53.606;9.872;2024-01-27T00:19:32;23.10;;;5.30;;
13805;SDS011;6974;53.606;9.872;2024-01-27T00:21:59;19.77;;;5.27;;
13805;SDS011;6974;53.606;9.872;2024-01-27T00:24:27;25.60;;;5.57;;
13805;SDS011;6974;53.606;9.872;2024-01-27T00:26:54;26.00;;;5.70;;
13805;SDS011;6974;53.606;9.872;2024-01-27T00:29:22;23.40;;;5.10;;
13805;SDS011;6974;53.606;9.872;2024-01-27T00:31:50;22.37;;;5.10;;
13805;SDS011;6974;53.606;9.872;2024-01-27T00:34:19;20.43;;;5.57;;
13805;SDS011;6974;53.606;9.872;2024-01-27T00:36:46;27.23;;;5.47;;
13805;SDS011;6974;53.606;9.872;2024-01-27T00:39:14;28.93;;;5.47;;
13805;SDS011;6974;53.606;9.872;2024-01-27T00:41:42;22.97;;;5.43;;
13805;SDS011;6974;53.606;9.872;2024-01-27T00:44:09;23.40;;;5.33;;
13805;SDS011;6974;53.606;9.872;2024-01-27T00:46:36;28.03;;;5.23;;
13805;SDS011;6974;53.606;9.872;2024-01-27T00:49:04;29.23;;;6.13;;
13805;SDS011;6974;53.606;9.872;2024-01-27T00:51:32;22.10;;;5.57;;
13805;SDS011;6974;53.606;9.872;2024-01-27T00:53:59;28.17;;;5.27;;
13805;SDS011;6974;53.606;9.872;2024-01-27T00:56:26;29.10;;;5.03;;
13805;SDS011;6974;53.606;9.872;2024-01-27T00:58:53;25.33;;;5.73;;
13805;SDS011;6974;53.606;9.872;2024-01-27T01:01:20;19.30;;;4.43;;
13805;SDS011;6974;53.606;9.872;2024-01-27T01:03:47;25.20;;;6.20;;
13805;SDS011;6974;53.606;9.872;2024-01-27T01:06:15;27.67;;;5.33;;
13805;SDS011;6974;53.606;9.872;2024-01-27T01:08:42;25.93;;;5.73;;
13805;SDS011;6974;53.606;9.872;2024-01-27T01:11:09;25.80;;;5.67;;
13805;SDS011;6974;53.606;9.872;2024-01-27T01:13:36;16.43;;;5.50;;
13805;SDS011;6974;53.606;9.872;2024-01-27T01:16:05;28.63;;;5.53;;
13805;SDS011;6974;53.606;9.872;2024-01-27T01:18:33;21.63;;;5.37;;
13805;SDS011;6974;53.606;9.872;2024-01-27T01:21:01;22.60;;;5.53;;
13805;SDS011;6974;53.606;9.872;2024-01-27T01:23:29;30.30;;;6.23;;
13805;SDS011;6974;53.606;9.872;2024-01-27T01:25:56;25.43;;;4.93;;
13805;SDS011;6974;53.606;9.872;2024-01-27T01:28:23;24.30;;;5.77;;
13805;SDS011;6974;53.606;9.872;2024-01-27T01:30:50;20.93;;;5.23;;
13805;SDS011;6974;53.606;9.872;2024-01-27T01:33:17;25.23;;;5.87;;
13805;SDS011;6974;53.606;9.872;2024-01-27T01:35:44;28.47;;;5.53;;
13805;SDS011;6974;53.606;9.872;2024-01-27T01:38:11;23.57;;;5.40;;
13805;SDS011;6974;53.606;9.872;2024-01-27T01:40:40;27.27;;;5.67;;
13805;SDS011;6974;53.606;9.872;2024-01-27T01:43:09;23.47;;;5.37;;
13805;SDS011;6974;53.606;9.872;2024-01-27T01:45:37;20.73;;;4.93;;
13805;SDS011;6974;53.606;9.872;2024-01-27T01:48:04;24.77;;;4.70;;
13805;SDS011;6974;53.606;9.872;2024-01-27T01:50:31;26.73;;;5.27;;
13805;SDS011;6974;53.606;9.872;2024-01-27T01:52:58;25.40;;;5.20;;
13805;SDS011;6974;53.606;9.872;2024-01-27T01:55:25;24.73;;;5.47;;
13805;SDS011;6974;53.606;9.872;2024-01-27T01:57:56;18.97;;;5.43;;
13805;SDS011;6974;53.606;9.872;2024-01-27T02:00:23;27.20;;;5.17;;
13805;SDS011;6974;53.606;9.872;2024-01-27T02:02:51;26.80;;;5.30;;
13805;SDS011;6974;53.606;9.872;2024-01-27T02:05:18;22.57;;;5.03;;
13805;SDS011;6974;53.606;9.872;2024-01-27T02:07:45;17.10;;;4.57;;
13805;SDS011;6974;53.606;9.872;2024-01-27T02:10:13;23.07;;;5.33;;
13805;SDS011;6974;53.606;9.872;2024-01-27T02:12:41;23.10;;;5.17;;
13805;SDS011;6974;53.606;9.872;2024-01-27T02:15:11;19.60;;;4.90;;
13805;SDS011;6974;53.606;9.872;2024-01-27T02:17:40;27.90;;;5.37;;
13805;SDS011;6974;53.606;9.872;2024-01-27T02:23:30;29.80;;;5.97;;
13805;SDS011;6974;53.606;9.872;2024-01-27T02:25:58;21.37;;;5.53;;
13805;SDS011;6974;53.606;9.872;2024-01-27T02:28:27;24.70;;;5.97;;
13805;SDS011;6974;53.606;9.872;2024-01-27T02:30:57;25.80;;;5.57;;
13805;SDS011;6974;53.606;9.872;2024-01-27T02:33:25;21.47;;;4.57;;
13805;SDS011;6974;53.606;9.872;2024-01-27T02:35:52;21.53;;;4.93;;
13805;SDS011;6974;53.606;9.872;2024-01-27T02:38:19;18.83;;;5.47;;
13805;SDS011;6974;53.606;9.872;2024-01-27T02:40:47;26.77;;;5.97;;
13805;SDS011;6974;53.606;9.872;2024-01-27T02:43:15;25.73;;;4.90;;
13805;SDS011;6974;53.606;9.872;2024-01-27T02:45:42;22.00;;;4.93;;
13805;SDS011;6974;53.606;9.872;2024-01-27T02:48:09;22.47;;;6.83;;
13805;SDS011;6974;53.606;9.872;2024-01-27T02:50:36;25.57;;;5.53;;
13805;SDS011;6974;53.606;9.872;2024-01-27T02:53:04;31.87;;;6.57;;
13805;SDS011;6974;53.606;9.872;2024-01-27T02:55:31;27.67;;;5.70;;
13805;SDS011;6974;53.606;9.872;2024-01-27T02:57:58;27.20;;;6.07;;
13805;SDS011;6974;53.606;9.872;2024-01-27T03:00:27;21.97;;;5.27;;
13805;SDS011;6974;53.606;9.872;2024-01-27T03:02:54;20.37;;;4.93;;
13805;SDS011;6974;53.606;9.872;2024-01-27T03:05:22;22.63;;;5.53;;
13805;SDS011;6974;53.606;9.872;2024-01-27T03:07:49;25.77;;;5.37;;
13805;SDS011;6974;53.606;9.872;2024-01-27T03:10:16;20.77;;;4.73;;
13805;SDS011;6974;53.606;9.872;2024-01-27T03:12:43;17.67;;;5.17;;
13805;SDS011;6974;53.606;9.872;2024-01-27T03:15:10;28.03;;;5.63;;
13805;SDS011;6974;53.606;9.872;2024-01-27T03:17:39;20.23;;;5.77;;
13805;SDS011;6974;53.606;9.872;2024-01-27T03:20:06;17.27;;;4.60;;
13805;SDS011;6974;53.606;9.872;2024-01-27T03:22:34;27.33;;;5.63;;
13805;SDS011;6974;53.606;9.872;2024-01-27T03:25:01;19.23;;;4.67;;
13805;SDS011;6974;53.606;9.872;2024-01-27T03:27:28;22.77;;;5.10;;
13805;SDS011;6974;53.606;9.872;2024-01-27T03:29:58;24.57;;;5.43;;
13805;SDS011;6974;53.606;9.872;2024-01-27T03:32:26;22.33;;;5.10;;
13805;SDS011;6974;53.606;9.872;2024-01-27T03:34:55;19.33;;;5.43;;
13805;SDS011;6974;53.606;9.872;2024-01-27T03:37:22;25.77;;;4.73;;
13805;SDS011;6974;53.606;9.872;2024-01-27T03:39:50;23.23;;;5.33;;
13805;SDS011;6974;53.606;9.872;2024-01-27T03:42:20;23.20;;;5.03;;
13805;SDS011;6974;53.606;9.872;2024-01-27T03:44:49;16.40;;;5.20;;
13805;SDS011;6974;53.606;9.872;2024-01-27T03:47:16;20.00;;;5.47;;
13805;SDS011;6974;53.606;9.872;2024-01-27T03:49:44;17.87;;;4.53;;
13805;SDS011;6974;53.606;9.872;2024-01-27T03:52:12;20.23;;;5.40;;
13805;SDS011;6974;53.606;9.872;2024-01-27T03:54:39;21.10;;;5.00;;
13805;SDS011;6974;53.606;9.872;2024-01-27T03:57:06;23.20;;;5.20;;
13805;SDS011;6974;53.606;9.872;2024-01-27T03:59:33;24.00;;;5.40;;
13805;SDS011;6974;53.606;9.872;2024-01-27T04:02:00;21.47;;;4.53;;
13805;SDS011;6974;53.606;9.872;2024-01-27T04:04:27;20.40;;;4.60;;
13805;SDS011;6974;53.606;9.872;2024-01-27T04:06:54;24.40;;;5.63;;
13805;SDS011;6974;53.606;9.872;2024-01-27T04:09:23;23.70;;;5.30;;
13805;SDS011;6974;53.606;9.872;2024-01-27T04:11:50;16.43;;;4.63;;
13805;SDS011;6974;53.606;9.872;2024-01-27T04:14:19;21.73;;;5.17;;
13805;SDS011;6974;53.606;9.872;2024-01-27T04:16:46;21.93;;;5.03;;
13805;SDS011;6974;53.606;9.872;2024-01-27T04:19:13;22.17;;;5.47;;
13805;SDS011;6974;53.606;9.872;2024-01-27T04:21:41;21.60;;;4.43;;
13805;SDS011;6974;53.606;9.872;2024-01-27T04:24:08;23.40;;;5.13;;
13805;SDS011;6974;53.606;9.872;2024-01-27T04:26:37;27.43;;;5.00;;
13805;SDS011;6974;53.606;9.872;2024-01-27T04:29:04;25.97;;;4.80;;
13805;SDS011;6974;53.606;9.872;2024-01-27T04:31:33;20.90;;;5.87;;
13805;SDS011;6974;53.606;9.872;2024-01-27T04:34:01;18.17;;;4.37;;
13805;SDS011;6974;53.606;9.872;2024-01-27T04:36:29;22.07;;;5.10;;
13805;SDS011;6974;53.606;9.872;2024-01-27T04:38:56;18.47;;;5.10;;
13805;SDS011;6974;53.606;9.872;2024-01-27T04:41:23;12.73;;;4.23;;
13805;SDS011;6974;53.606;9.872;2024-01-27T04:43:53;25.07;;;5.00;;
13805;SDS011;6974;53.606;9.872;2024-01-27T04:46:22;21.77;;;5.20;;
13805;SDS011;6974;53.606;9.872;2024-01-27T04:48:49;16.63;;;5.10;;
13805;SDS011;6974;53.606;9.872;2024-01-27T04:51:16;24.37;;;4.67;;
13805;SDS011;6974;53.606;9.872;2024-01-27T04:53:43;22.67;;;4.20;;
13805;SDS011;6974;53.606;9.872;2024-01-27T04:56:10;23.07;;;4.83;;
13805;SDS011;6974;53.606;9.872;2024-01-27T04:58:39;24.67;;;5.53;;
13805;SDS011;6974;53.606;9.872;2024-01-27T05:01:08;25.90;;;5.80;;
13805;SDS011;6974;53.606;9.872;2024-01-27T05:03:35;21.00;;;5.17;;
13805;SDS011;6974;53.606;9.872;2024-01-27T05:06:03;16.97;;;4.93;;
13805;SDS011;6974;53.606;9.872;2024-01-27T05:08:33;25.03;;;5.53;;
13805;SDS011;6974;53.606;9.872;2024-01-27T05:11:01;24.40;;;4.97;;
13805;SDS011;6974;53.606;9.872;2024-01-27T05:13:28;19.03;;;4.90;;
13805;SDS011;6974;53.606;9.872;2024-01-27T05:15:55;19.33;;;5.13;;
13805;SDS011;6974;53.606;9.872;2024-01-27T05:18:24;24.20;;;6.13;;
13805;SDS011;6974;53.606;9.872;2024-01-27T05:20:52;23.87;;;5.83;;
13805;SDS011;6974;53.606;9.872;2024-01-27T05:23:19;20.67;;;5.30;;
13805;SDS011;6974;53.606;9.872;2024-01-27T05:25:48;20.10;;;5.13;;
13805;SDS011;6974;53.606;9.872;2024-01-27T05:28:16;20.60;;;5.17;;
13805;SDS011;6974;53.606;9.872;2024-01-27T05:30:43;30.90;;;5.90;;
13805;SDS011;6974;53.606;9.872;2024-01-27T05:33:10;20.07;;;4.87;;
13805;SDS011;6974;53.606;9.872;2024-01-27T05:35:38;19.27;;;5.10;;
13805;SDS011;6974;53.606;9.872;2024-01-27T05:38:05;27.07;;;5.53;;
13805;SDS011;6974;53.606;9.872;2024-01-27T05:40:33;21.60;;;4.57;;
13805;SDS011;6974;53.606;9.872;2024-01-27T05:43:00;20.90;;;5.07;;
13805;SDS011;6974;53.606;9.872;2024-01-27T05:45:27;20.07;;;5.17;;
13805;SDS011;6974;53.606;9.872;2024-01-27T05:47:54;25.20;;;5.40;;
13805;SDS011;6974;53.606;9.872;2024-01-27T05:50:21;21.53;;;4.80;;
13805;SDS011;6974;53.606;9.872;2024-01-27T05:52:50;23.67;;;5.30;;
13805;SDS011;6974;53.606;9.872;2024-01-27T05:55:18;26.10;;;4.70;;
13805;SDS011;6974;53.606;9.872;2024-01-27T05:57:45;23.13;;;5.53;;
13805;SDS011;6974;53.606;9.872;2024-01-27T06:00:12;25.80;;;5.63;;
13805;SDS011;6974;53.606;9.872;2024-01-27T06:02:39;20.57;;;4.80;;
13805;SDS011;6974;53.606;9.872;2024-01-27T06:05:06;25.03;;;5.67;;
13805;SDS011;6974;53.606;9.872;2024-01-27T06:07:37;22.10;;;5.97;;
13805;SDS011;6974;53.606;9.872;2024-01-27T06:10:06;25.83;;;5.07;;
13805;SDS011;6974;53.606;9.872;2024-01-27T06:12:32;28.43;;;5.07;;
13805;SDS011;6974;53.606;9.872;2024-01-27T06:14:59;22.33;;;5.67;;
13805;SDS011;6974;53.606;9.872;2024-01-27T06:17:26;22.10;;;4.93;;
13805;SDS011;6974;53.606;9.872;2024-01-27T06:19:53;25.87;;;4.93;;
13805;SDS011;6974;53.606;9.872;2024-01-27T06:22:20;20.50;;;5.90;;
13805;SDS011;6974;53.606;9.872;2024-01-27T06:24:47;22.23;;;5.00;;
13805;SDS011;6974;53.606;9.872;2024-01-27T06:27:15;21.37;;;5.53;;
13805;SDS011;6974;53.606;9.872;2024-01-27T06:29:42;24.73;;;5.57;;
13805;SDS011;6974;53.606;9.872;2024-01-27T06:32:09;22.83;;;5.23;;
13805;SDS011;6974;53.606;9.872;2024-01-27T06:34:36;20.37;;;4.93;;
13805;SDS011;6974;53.606;9.872;2024-01-27T06:37:02;24.40;;;4.83;;
13805;SDS011;6974;53.606;9.872;2024-01-27T06:39:30;21.30;;;4.50;;
13805;SDS011;6974;53.606;9.872;2024-01-27T06:41:56;19.93;;;4.27;;
13805;SDS011;6974;53.606;9.872;2024-01-27T06:44:24;18.70;;;4.97;;
13805;SDS011;6974;53.606;9.872;2024-01-27T06:46:51;21.27;;;5.07;;
13805;SDS011;6974;53.606;9.872;2024-01-27T06:49:18;23.23;;;5.10;;
13805;SDS011;6974;53.606;9.872;2024-01-27T06:51:45;23.33;;;5.20;;
13805;SDS011;6974;53.606;9.872;2024-01-27T06:54:12;21.93;;;4.70;;
13805;SDS011;6974;53.606;9.872;2024-01-27T06:56:37;19.13;;;4.87;;
13805;SDS011;6974;53.606;9.872;2024-01-27T06:59:04;23.20;;;5.13;;
13805;SDS011;6974;53.606;9.872;2024-01-27T07:01:33;18.43;;;5.07;;
13805;SDS011;6974;53.606;9.872;2024-01-27T07:03:59;22.23;;;5.40;;
13805;SDS011;6974;53.606;9.872;2024-01-27T07:06:26;17.87;;;4.67;;
13805;SDS011;6974;53.606;9.872;2024-01-27T07:08:53;16.97;;;4.67;;
13805;SDS011;6974;53.606;9.872;2024-01-27T07:11:20;18.93;;;5.00;;
13805;SDS011;6974;53.606;9.872;2024-01-27T07:13:47;20.33;;;4.50;;
13805;SDS011;6974;53.606;9.872;2024-01-27T07:16:13;21.63;;;4.97;;
13805;SDS011;6974;53.606;9.872;2024-01-27T07:18:41;21.90;;;4.67;;
13805;SDS011;6974;53.606;9.872;2024-01-27T07:21:08;20.13;;;5.37;;
13805;SDS011;6974;53.606;9.872;2024-01-27T07:23:41;26.30;;;4.83;;
13805;SDS011;6974;53.606;9.872;2024-01-27T07:26:08;20.37;;;4.10;;
13805;SDS011;6974;53.606;9.872;2024-01-27T07:28:36;21.80;;;4.20;;
13805;SDS011;6974;53.606;9.872;2024-01-27T07:31:03;18.53;;;4.40;;
13805;SDS011;6974;53.606;9.872;2024-01-27T07:33:30;22.20;;;5.23;;
13805;SDS011;6974;53.606;9.872;2024-01-27T07:35:58;17.47;;;4.63;;
13805;SDS011;6974;53.606;9.872;2024-01-27T07:38:25;18.87;;;4.70;;
13805;SDS011;6974;53.606;9.872;2024-01-27T07:40:51;16.77;;;4.03;;
13805;SDS011;6974;53.606;9.872;2024-01-27T07:43:18;17.47;;;4.63;;
13805;SDS011;6974;53.606;9.872;2024-01-27T07:45:45;24.50;;;5.00;;
13805;SDS011;6974;53.606;9.872;2024-01-27T07:48:12;24.40;;;4.57;;
13805;SDS011;6974;53.606;9.872;2024-01-27T07:50:39;16.40;;;4.50;;
13805;SDS011;6974;53.606;9.872;2024-01-27T07:53:07;15.93;;;4.77;;
13805;SDS011;6974;53.606;9.872;2024-01-27T07:55:33;17.17;;;4.10;;
13805;SDS011;6974;53.606;9.872;2024-01-27T07:58:00;21.80;;;4.87;;
13805;SDS011;6974;53.606;9.872;2024-01-27T08:00:27;17.63;;;4.33;;
13805;SDS011;6974;53.606;9.872;2024-01-27T08:02:54;18.20;;;4.97;;
13805;SDS011;6974;53.606;9.872;2024-01-27T08:05:21;17.40;;;4.30;;
13805;SDS011;6974;53.606;9.872;2024-01-27T08:07:47;23.60;;;5.33;;
13805;SDS011;6974;53.606;9.872;2024-01-27T08:10:16;19.07;;;4.50;;
13805;SDS011;6974;53.606;9.872;2024-01-27T08:12:43;20.13;;;5.20;;
13805;SDS011;6974;53.606;9.872;2024-01-27T08:15:09;20.77;;;5.43;;
13805;SDS011;6974;53.606;9.872;2024-01-27T08:17:38;18.33;;;4.63;;
13805;SDS011;6974;53.606;9.872;2024-01-27T08:20:05;14.43;;;4.27;;
13805;SDS011;6974;53.606;9.872;2024-01-27T08:22:33;18.47;;;4.70;;
13805;SDS011;6974;53.606;9.872;2024-01-27T08:25:00;18.17;;;4.73;;
13805;SDS011;6974;53.606;9.872;2024-01-27T08:27:28;19.53;;;4.17;;
13805;SDS011;6974;53.606;9.872;2024-01-27T08:29:55;15.90;;;5.00;;
13805;SDS011;6974;53.606;9.872;2024-01-27T08:32:22;15.40;;;5.57;;
13805;SDS011;6974;53.606;9.872;2024-01-27T08:34:49;14.13;;;3.97;;
13805;SDS011;6974;53.606;9.872;2024-01-27T08:37:17;19.27;;;4.40;;
13805;SDS011;6974;53.606;9.872;2024-01-27T08:39:45;15.10;;;4.70;;
13805;SDS011;6974;53.606;9.872;2024-01-27T08:42:12;17.47;;;4.10;;
13805;SDS011;6974;53.606;9.872;2024-01-27T08:44:40;14.50;;;3.97;;
13805;SDS011;6974;53.606;9.872;2024-01-27T08:47:06;18.97;;;5.10;;
13805;SDS011;6974;53.606;9.872;2024-01-27T08:49:33;16.37;;;4.03;;
13805;SDS011;6974;53.606;9.872;2024-01-27T08:52:00;19.70;;;4.50;;
13805;SDS011;6974;53.606;9.872;2024-01-27T08:54:27;14.30;;;3.97;;
13805;SDS011;6974;53.606;9.872;2024-01-27T08:56:54;18.80;;;4.23;;
13805;SDS011;6974;53.606;9.872;2024-01-27T08:59:21;15.70;;;3.90;;
13805;SDS011;6974;53.606;9.872;2024-01-27T09:01:49;12.00;;;3.83;;
13805;SDS011;6974;53.606;9.872;2024-01-27T09:04:16;18.60;;;6.20;;
13805;SDS011;6974;53.606;9.872;2024-01-27T09:06:42;17.37;;;4.30;;
13805;SDS011;6974;53.606;9.872;2024-01-27T09:09:09;18.40;;;3.93;;
13805;SDS011;6974;53.606;9.872;2024-01-27T09:11:37;17.53;;;3.87;;
13805;SDS011;6974;53.606;9.872;2024-01-27T09:14:04;18.50;;;4.60;;
13805;SDS011;6974;53.606;9.872;2024-01-27T09:16:32;19.60;;;4.73;;
13805;SDS011;6974;53.606;9.872;2024-01-27T09:19:00;15.00;;;4.10;;
13805;SDS011;6974;53.606;9.872;2024-01-27T09:21:27;19.93;;;5.40;;
13805;SDS011;6974;53.606;9.872;2024-01-27T09:23:56;16.43;;;3.97;;
13805;SDS011;6974;53.606;9.872;2024-01-27T09:26:23;19.63;;;5.03;;
13805;SDS011;6974;53.606;9.872;2024-01-27T09:28:49;12.80;;;4.20;;
13805;SDS011;6974;53.606;9.872;2024-01-27T09:31:19;15.93;;;4.63;;
13805;SDS011;6974;53.606;9.872;2024-01-27T09:33:48;13.07;;;4.00;;
13805;SDS011;6974;53.606;9.872;2024-01-27T09:36:17;16.50;;;3.77;;
13805;SDS011;6974;53.606;9.872;2024-01-27T09:38:44;19.30;;;4.63;;
13805;SDS011;6974;53.606;9.872;2024-01-27T09:41:12;13.67;;;4.47;;
13805;SDS011;6974;53.606;9.872;2024-01-27T09:43:40;13.30;;;4.50;;
13805;SDS011;6974;53.606;9.872;2024-01-27T09:46:09;17.13;;;4.40;;
13805;SDS011;6974;53.606;9.872;2024-01-27T09:48:36;11.07;;;4.20;;
13805;SDS011;6974;53.606;9.872;2024-01-27T09:51:03;12.53;;;4.20;;
13805;SDS011;6974;53.606;9.872;2024-01-27T09:53:32;18.33;;;4.60;;
13805;SDS011;6974;53.606;9.872;2024-01-27T09:55:59;15.90;;;4.50;;
13805;SDS011;6974;53.606;9.872;2024-01-27T09:58:28;10.10;;;3.80;;
13805;SDS011;6974;53.606;9.872;2024-01-27T10:00:56;17.53;;;4.40;;
13805;SDS011;6974;53.606;9.872;2024-01-27T10:03:24;17.07;;;4.77;;
13805;SDS011;6974;53.606;9.872;2024-01-27T10:05:52;14.50;;;4.20;;
13805;SDS011;6974;53.606;9.872;2024-01-27T10:08:20;13.90;;;4.10;;
13805;SDS011;6974;53.606;9.872;2024-01-27T10:10:49;20.03;;;4.60;;
13805;SDS011;6974;53.606;9.872;2024-01-27T10:13:20;15.33;;;4.60;;
13805;SDS011;6974;53.606;9.872;2024-01-27T10:15:58;14.20;;;4.17;;
13805;SDS011;6974;53.606;9.872;2024-01-27T10:18:26;12.73;;;3.47;;
13805;SDS011;6974;53.606;9.872;2024-01-27T10:20:52;15.87;;;3.93;;
13805;SDS011;6974;53.606;9.872;2024-01-27T10:23:19;10.90;;;4.07;;
13805;SDS011;6974;53.606;9.872;2024-01-27T10:25:46;18.10;;;4.23;;
13805;SDS011;6974;53.606;9.872;2024-01-27T10:28:14;18.60;;;5.17;;
13805;SDS011;6974;53.606;9.872;2024-01-27T10:30:42;16.13;;;4.50;;
13805;SDS011;6974;53.606;9.872;2024-01-27T10:33:09;15.43;;;4.17;;
13805;SDS011;6974;53.606;9.872;2024-01-27T10:35:36;19.27;;;4.37;;
13805;SDS011;6974;53.606;9.872;2024-01-27T10:38:03;14.37;;;3.90;;
13805;SDS011;6974;53.606;9.872;2024-01-27T10:40:30;16.33;;;3.90;;
13805;SDS011;6974;53.606;9.872;2024-01-27T10:43:02;14.53;;;4.20;;
13805;SDS011;6974;53.606;9.872;2024-01-27T10:45:33;17.10;;;4.40;;
13805;SDS011;6974;53.606;9.872;2024-01-27T10:48:01;14.43;;;4.10;;
13805;SDS011;6974;53.606;9.872;2024-01-27T10:50:29;11.00;;;3.77;;
13805;SDS011;6974;53.606;9.872;2024-01-27T10:52:59;20.30;;;5.07;;
13805;SDS011;6974;53.606;9.872;2024-01-27T10:55:29;16.20;;;5.10;;
13805;SDS011;6974;53.606;9.872;2024-01-27T10:57:56;12.93;;;4.87;;
13805;SDS011;6974;53.606;9.872;2024-01-27T11:00:27;13.53;;;4.47;;
13805;SDS011;6974;53.606;9.872;2024-01-27T11:02:57;16.77;;;4.23;;
13805;SDS011;6974;53.606;9.872;2024-01-27T11:05:25;17.90;;;4.33;;
13805;SDS011;6974;53.606;9.872;2024-01-27T11:07:53;17.27;;;4.63;;
13805;SDS011;6974;53.606;9.872;2024-01-27T11:10:21;11.10;;;4.23;;
13805;SDS011;6974;53.606;9.872;2024-01-27T11:12:48;14.00;;;4.20;;
13805;SDS011;6974;53.606;9.872;2024-01-27T11:15:17;16.27;;;4.73;;
13805;SDS011;6974;53.606;9.872;2024-01-27T11:17:44;15.97;;;4.20;;
13805;SDS011;6974;53.606;9.872;2024-01-27T11:20:13;15.17;;;4.70;;
13805;SDS011;6974;53.606;9.872;2024-01-27T11:22:42;12.43;;;4.00;;
13805;SDS011;6974;53.606;9.872;2024-01-27T11:25:14;16.17;;;3.93;;
13805;SDS011;6974;53.606;9.872;2024-01-27T11:27:42;14.37;;;3.83;;
13805;SDS011;6974;53.606;9.872;2024-01-27T11:30:24;11.00;;;3.90;;
13805;SDS011;6974;53.606;9.872;2024-01-27T11:32:52;13.87;;;3.87;;
13805;SDS011;6974;53.606;9.872;2024-01-27T11:35:21;17.13;;;4.03;;
13805;SDS011;6974;53.606;9.872;2024-01-27T11:37:48;13.53;;;4.43;;
13805;SDS011;6974;53.606;9.872;2024-01-27T11:40:14;17.47;;;4.13;;
13805;SDS011;6974;53.606;9.872;2024-01-27T11:42:41;15.10;;;4.70;;
13805;SDS011;6974;53.606;9.872;2024-01-27T11:45:09;11.43;;;4.10;;
13805;SDS011;6974;53.606;9.872;2024-01-27T11:47:36;19.00;;;4.53;;
13805;SDS011;6974;53.606;9.872;2024-01-27T11:50:03;15.07;;;3.80;;
13805;SDS011;6974;53.606;9.872;2024-01-27T11:52:32;12.90;;;4.10;;
13805;SDS011;6974;53.606;9.872;2024-01-27T11:54:59;11.43;;;5.33;;
13805;SDS011;6974;53.606;9.872;2024-01-27T11:57:26;13.20;;;4.20;;
13805;SDS011;6974;53.606;9.872;2024-01-27T11:59:54;13.67;;;4.30;;
13805;SDS011;6974;53.606;9.872;2024-01-27T12:02:21;11.87;;;4.07;;
13805;SDS011;6974;53.606;9.872;2024-01-27T12:04:48;15.17;;;4.37;;
13805;SDS011;6974;53.606;9.872;2024-01-27T12:07:15;17.70;;;4.17;;
13805;SDS011;6974;53.606;9.872;2024-01-27T12:09:45;13.83;;;3.77;;
13805;SDS011;6974;53.606;9.872;2024-01-27T12:12:12;14.63;;;3.80;;
13805;SDS011;6974;53.606;9.872;2024-01-27T12:14:40;15.30;;;4.57;;
13805;SDS011;6974;53.606;9.872;2024-01-27T12:17:09;10.57;;;4.13;;
13805;SDS011;6974;53.606;9.872;2024-01-27T12:19:36;13.97;;;4.97;;
13805;SDS011;6974;53.606;9.872;2024-01-27T12:22:03;11.13;;;4.37;;
13805;SDS011;6974;53.606;9.872;2024-01-27T12:24:30;13.67;;;4.13;;
13805;SDS011;6974;53.606;9.872;2024-01-27T12:26:58;12.60;;;3.90;;
13805;SDS011;6974;53.606;9.872;2024-01-27T12:29:26;10.27;;;3.57;;
13805;SDS011;6974;53.606;9.872;2024-01-27T12:31:53;10.77;;;3.50;;
13805;SDS011;6974;53.606;9.872;2024-01-27T12:34:20;16.13;;;4.03;;
13805;SDS011;6974;53.606;9.872;2024-01-27T12:36:48;14.47;;;3.97;;
13805;SDS011;6974;53.606;9.872;2024-01-27T12:39:16;14.27;;;4.00;;
13805;SDS011;6974;53.606;9.872;2024-01-27T12:41:43;10.70;;;3.57;;
13805;SDS011;6974;53.606;9.872;2024-01-27T12:44:11;12.67;;;4.20;;
13805;SDS011;6974;53.606;9.872;2024-01-27T12:46:38;17.27;;;4.43;;
13805;SDS011;6974;53.606;9.872;2024-01-27T12:49:05;10.20;;;3.00;;
13805;SDS011;6974;53.606;9.872;2024-01-27T12:51:32;13.27;;;3.93;;
13805;SDS011;6974;53.606;9.872;2024-01-27T12:53:59;16.97;;;4.47;;
13805;SDS011;6974;53.606;9.872;2024-01-27T12:56:26;20.17;;;4.40;;
13805;SDS011;6974;53.606;9.872;2024-01-27T12:58:53;15.83;;;4.27;;
13805;SDS011;6974;53.606;9.872;2024-01-27T13:01:21;12.67;;;3.40;;
13805;SDS011;6974;53.606;9.872;2024-01-27T13:03:48;12.97;;;4.20;;
13805;SDS011;6974;53.606;9.872;2024-01-27T13:06:16;10.23;;;3.63;;
13805;SDS011;6974;53.606;9.872;2024-01-27T13:08:43;12.70;;;4.00;;
13805;SDS011;6974;53.606;9.872;2024-01-27T13:11:12;13.63;;;3.93;;
13805;SDS011;6974;53.606;9.872;2024-01-27T13:13:39;15.33;;;4.50;;
13805;SDS011;6974;53.606;9.872;2024-01-27T13:16:07;12.37;;;4.27;;
13805;SDS011;6974;53.606;9.872;2024-01-27T13:18:35;14.37;;;4.70;;
13805;SDS011;6974;53.606;9.872;2024-01-27T13:21:02;13.93;;;4.00;;
13805;SDS011;6974;53.606;9.872;2024-01-27T13:23:30;17.60;;;5.07;;
13805;SDS011;6974;53.606;9.872;2024-01-27T13:25:57;12.17;;;4.37;;
13805;SDS011;6974;53.606;9.872;2024-01-27T13:28:24;16.10;;;4.83;;
13805;SDS011;6974;53.606;9.872;2024-01-27T13:30:51;14.10;;;5.60;;
13805;SDS011;6974;53.606;9.872;2024-01-27T13:33:18;13.03;;;4.47;;
13805;SDS011;6974;53.606;9.872;2024-01-27T13:35:46;15.87;;;4.37;;
13805;SDS011;6974;53.606;9.872;2024-01-27T13:38:13;13.30;;;4.30;;
13805;SDS011;6974;53.606;9.872;2024-01-27T13:40:40;12.77;;;4.73;;
13805;SDS011;6974;53.606;9.872;2024-01-27T13:43:07;18.00;;;4.67;;
13805;SDS011;6974;53.606;9.872;2024-01-27T13:45:34;21.67;;;4.50;;
13805;SDS011;6974;53.606;9.872;2024-01-27T13:48:01;13.67;;;4.87;;
13805;SDS011;6974;53.606;9.872;2024-01-27T13:50:28;15.17;;;4.40;;
13805;SDS011;6974;53.606;9.872;2024-01-27T13:52:57;16.93;;;5.23;;
13805;SDS011;6974;53.606;9.872;2024-01-27T13:55:24;14.93;;;4.97;;
13805;SDS011;6974;53.606;9.872;2024-01-27T13:57:51;17.20;;;5.27;;
13805;SDS011;6974;53.606;9.872;2024-01-27T14:00:18;13.70;;;5.50;;
13805;SDS011;6974;53.606;9.872;2024-01-27T14:02:45;14.07;;;4.43;;
13805;SDS011;6974;53.606;9.872;2024-01-27T14:05:12;21.80;;;5.07;;
13805;SDS011;6974;53.606;9.872;2024-01-27T14:07:39;13.77;;;4.80;;
13805;SDS011;6974;53.606;9.872;2024-01-27T14:10:08;10.10;;;4.30;;
13805;SDS011;6974;53.606;9.872;2024-01-27T14:12:35;11.67;;;4.97;;
13805;SDS011;6974;53.606;9.872;2024-01-27T14:15:03;14.77;;;5.27;;
13805;SDS011;6974;53.606;9.872;2024-01-27T14:17:31;18.77;;;5.40;;
13805;SDS011;6974;53.606;9.872;2024-01-27T14:19:59;12.63;;;4.73;;
13805;SDS011;6974;53.606;9.872;2024-01-27T14:22:28;16.20;;;4.73;;
13805;SDS011;6974;53.606;9.872;2024-01-27T14:24:55;18.03;;;4.33;;
13805;SDS011;6974;53.606;9.872;2024-01-27T14:27:23;11.47;;;4.60;;
13805;SDS011;6974;53.606;9.872;2024-01-27T14:29:51;12.33;;;4.37;;
13805;SDS011;6974;53.606;9.872;2024-01-27T14:32:19;10.47;;;4.10;;
13805;SDS011;6974;53.606;9.872;2024-01-27T14:34:46;13.70;;;4.50;;
13805;SDS011;6974;53.606;9.872;2024-01-27T14:37:13;13.17;;;3.60;;
13805;SDS011;6974;53.606;9.872;2024-01-27T14:39:41;13.00;;;3.87;;
13805;SDS011;6974;53.606;9.872;2024-01-27T14:42:10;10.10;;;3.47;;
13805;SDS011;6974;53.606;9.872;2024-01-27T14:44:39;12.77;;;3.70;;
13805;SDS011;6974;53.606;9.872;2024-01-27T14:47:05;13.53;;;4.00;;
13805;SDS011;6974;53.606;9.872;2024-01-27T14:49:34;11.77;;;3.57;;
13805;SDS011;6974;53.606;9.872;2024-01-27T14:52:02;12.43;;;4.33;;
13805;SDS011;6974;53.606;9.872;2024-01-27T14:54:30;21.83;;;4.57;;